createdAt,value
2017-02-10T00:00:00.072Z,26.3
2017-02-10T00:01:00.188Z,26.3
2017-02-10T00:01:59.213Z,26.3
2017-02-10T00:02:59.165Z,26.3
2017-02-10T00:04:00.723Z,26.3
2017-02-10T00:05:00.499Z,26.3
2017-02-10T00:05:59.432Z,26.3
2017-02-10T00:07:00.519Z,26.3
2017-02-10T00:08:00.501Z,26.3
2017-02-10T00:08:59.555Z,26.2
2017-02-10T00:09:59.886Z,26.3
2017-02-10T00:11:00.622Z,26.3
2017-02-10T00:12:00.646Z,26.2
2017-02-10T00:13:00.739Z,26.3
2017-02-10T00:14:00.802Z,26.2
2017-02-10T00:15:00.787Z,26.2
2017-02-10T00:16:00.079Z,26.3
2017-02-10T00:16:59.817Z,26.3
2017-02-10T00:18:00.948Z,26.3
2017-02-10T00:19:01.054Z,26.2
2017-02-10T00:19:59.945Z,26.3
2017-02-10T00:21:00.168Z,26.3
2017-02-10T00:22:01.513Z,26.2
2017-02-10T00:23:00.195Z,26.2
2017-02-10T00:24:00.206Z,26.2
2017-02-10T00:25:00.360Z,26.2
2017-02-10T00:26:00.318Z,26.2
2017-02-10T00:27:01.562Z,26.2
2017-02-10T00:28:01.898Z,26.2
2017-02-10T00:29:00.587Z,26.2
2017-02-10T00:30:01.797Z,26.2
2017-02-10T00:31:00.667Z,26.3
2017-02-10T00:32:01.835Z,26.2
2017-02-10T00:33:00.841Z,26.2
2017-02-10T00:34:02.246Z,26.2
2017-02-10T00:35:00.957Z,26.2
2017-02-10T00:36:01.045Z,26.2
2017-02-10T00:37:01.108Z,26.2
2017-02-10T00:38:01.174Z,26.2
2017-02-10T00:39:02.153Z,26.2
2017-02-10T00:40:02.552Z,26.2
2017-02-10T00:41:02.350Z,26.2
2017-02-10T00:42:02.294Z,26.2
2017-02-10T00:43:01.329Z,26.2
2017-02-10T00:44:01.402Z,26.2
2017-02-10T00:45:02.595Z,26.2
2017-02-10T00:46:02.818Z,26.2
2017-02-10T00:47:02.637Z,26.2
2017-02-10T00:48:01.641Z,26.2
2017-02-10T00:49:02.834Z,26.2
2017-02-10T00:50:01.746Z,26.2
2017-02-10T00:51:02.782Z,26.2
2017-02-10T00:52:02.046Z,26.2
2017-02-10T00:53:01.763Z,26.2
2017-02-10T00:54:01.849Z,26.2
2017-02-10T00:55:01.964Z,26.2
2017-02-10T00:56:02.034Z,26.2
2017-02-10T00:57:03.068Z,26.2
2017-02-10T00:58:03.498Z,26.2
2017-02-10T00:59:03.243Z,26.2
2017-02-10T01:00:02.125Z,26.2
2017-02-10T01:01:02.251Z,26.2
2017-02-10T01:02:03.366Z,26.2
2017-02-10T01:03:03.412Z,26.2
2017-02-10T01:04:02.577Z,26.2
2017-02-10T01:05:03.467Z,26.2
2017-02-10T01:06:03.527Z,26.2
2017-02-10T01:07:03.462Z,26.2
2017-02-10T01:08:03.644Z,26.2
2017-02-10T01:09:03.707Z,26.2
2017-02-10T01:10:04.001Z,26.2
2017-02-10T01:11:03.796Z,26.2
2017-02-10T01:12:03.866Z,26.2
2017-02-10T01:13:03.919Z,26.2
2017-02-10T01:14:02.866Z,26.2
2017-02-10T01:15:04.004Z,26.2
2017-02-10T01:16:04.255Z,26.2
2017-02-10T01:17:04.133Z,26.2
2017-02-10T01:18:03.070Z,26.2
2017-02-10T01:19:04.129Z,26.2
2017-02-10T01:20:03.095Z,26.2
2017-02-10T01:21:04.245Z,26.2
2017-02-10T01:22:04.550Z,26.2
2017-02-10T01:23:03.217Z,26.2
2017-02-10T01:24:04.226Z,26.2
2017-02-10T01:25:03.313Z,26.2
2017-02-10T01:26:04.453Z,26.2
2017-02-10T01:27:04.426Z,26.2
2017-02-10T01:28:03.799Z,26.2
2017-02-10T01:29:03.596Z,26.2
2017-02-10T01:30:04.666Z,26.2
2017-02-10T01:31:04.702Z,26.2
2017-02-10T01:32:04.740Z,26.2
2017-02-10T01:33:03.661Z,26.2
2017-02-10T01:34:05.155Z,26.2
2017-02-10T01:35:03.894Z,26.2
2017-02-10T01:36:05.019Z,26.2
2017-02-10T01:37:03.922Z,26.2
2017-02-10T01:38:04.010Z,26.2
2017-02-10T01:39:05.107Z,26.2
2017-02-10T01:40:04.374Z,26.2
2017-02-10T01:41:04.104Z,26.2
2017-02-10T01:42:04.154Z,26.2
2017-02-10T01:43:05.177Z,26.2
2017-02-10T01:44:05.277Z,26.2
2017-02-10T01:45:05.355Z,26.2
2017-02-10T01:46:04.752Z,26.2
2017-02-10T01:47:04.536Z,26.2
2017-02-10T01:48:05.559Z,26.2
2017-02-10T01:49:05.570Z,26.2
2017-02-10T01:53:00.085Z,26.2
2017-02-10T01:53:58.831Z,26.2
2017-02-10T01:54:58.816Z,26.2
2017-02-10T01:55:59.914Z,26.2
2017-02-10T01:56:59.972Z,26.2
2017-02-10T01:58:00.073Z,26.2
2017-02-10T01:59:00.347Z,26.2
2017-02-10T01:59:59.129Z,26.2
2017-02-10T02:00:59.165Z,26.2
2017-02-10T02:01:59.209Z,26.2
2017-02-10T02:03:00.245Z,26.2
2017-02-10T02:03:59.360Z,26.2
2017-02-10T02:05:00.690Z,26.2
2017-02-10T02:05:59.349Z,26.2
2017-02-10T02:06:59.351Z,26.2
2017-02-10T02:08:00.535Z,26.2
2017-02-10T02:09:00.628Z,26.2
2017-02-10T02:10:00.629Z,26.2
2017-02-10T02:11:00.906Z,26.2
2017-02-10T02:11:59.662Z,26.2
2017-02-10T02:12:59.756Z,26.2
2017-02-10T02:13:59.834Z,26.2
2017-02-10T02:15:00.916Z,26.2
2017-02-10T02:16:00.957Z,26.2
2017-02-10T02:17:01.239Z,26.2
2017-02-10T02:17:59.913Z,26.2
2017-02-10T02:18:59.906Z,26.2
2017-02-10T02:20:01.100Z,26.2
2017-02-10T02:21:01.096Z,26.2
2017-02-10T02:22:00.170Z,26.2
2017-02-10T02:23:00.412Z,26.2
2017-02-10T02:24:01.323Z,26.2
2017-02-10T02:25:01.413Z,26.2
2017-02-10T02:26:00.357Z,26.1
2017-02-10T02:27:00.331Z,26.2
2017-02-10T02:28:01.396Z,26.2
2017-02-10T02:29:01.762Z,26.2
2017-02-10T02:30:01.542Z,26.1
2017-02-10T02:31:00.413Z,26.2
2017-02-10T02:32:00.558Z,26.1
2017-02-10T02:33:00.674Z,26.2
2017-02-10T02:34:01.724Z,26.2
2017-02-10T02:35:01.093Z,26.1
2017-02-10T02:36:00.855Z,26.1
2017-02-10T02:37:01.930Z,26.1
2017-02-10T02:38:01.879Z,26.1
2017-02-10T02:39:01.957Z,26.1
2017-02-10T02:40:02.040Z,26.1
2017-02-10T02:41:01.257Z,26.1
2017-02-10T02:42:02.275Z,26.1
2017-02-10T02:43:02.231Z,26.1
2017-02-10T02:44:02.250Z,26.1
2017-02-10T02:45:01.266Z,26.1
2017-02-10T02:46:02.445Z,26.1
2017-02-10T02:47:02.833Z,26.1
2017-02-10T02:48:02.586Z,26.1
2017-02-10T02:49:01.525Z,26.1
2017-02-10T02:50:01.662Z,26.1
2017-02-10T02:51:01.582Z,26.1
2017-02-10T02:52:02.719Z,26.1
2017-02-10T02:53:03.071Z,26.1
2017-02-10T02:54:02.954Z,26.1
2017-02-10T02:55:02.974Z,26.1
2017-02-10T02:56:02.899Z,26.1
2017-02-10T02:57:03.041Z,26.1
2017-02-10T02:58:03.030Z,26.1
2017-02-10T02:59:03.381Z,26.1
2017-02-10T03:00:02.145Z,26.1
2017-02-10T03:01:02.193Z,26.1
2017-02-10T03:02:02.259Z,26.1
2017-02-10T03:03:03.444Z,26.1
2017-02-10T03:04:03.466Z,26.1
2017-02-10T03:05:03.763Z,26.1
2017-02-10T03:06:02.461Z,26.1
2017-02-10T03:07:02.484Z,26.1
2017-02-10T03:08:02.613Z,26.1
2017-02-10T03:09:03.719Z,26.1
2017-02-10T03:10:02.856Z,26.1
2017-02-10T03:11:04.182Z,26.1
2017-02-10T03:12:03.903Z,26.1
2017-02-10T03:13:02.799Z,26.1
2017-02-10T03:14:02.987Z,26.1
2017-02-10T03:15:03.039Z,26.1
2017-02-10T03:16:03.109Z,26.1
2017-02-10T03:17:04.527Z,26.1
2017-02-10T03:23:07.070Z,26.1
2017-02-10T03:24:05.869Z,26.2
2017-02-10T03:25:05.914Z,26.2
2017-02-10T03:26:06.905Z,26.2
2017-02-10T03:27:06.997Z,26.2
2017-02-10T03:28:05.872Z,26.2
2017-02-10T03:29:06.258Z,26.2
2017-02-10T03:30:06.049Z,26.2
2017-02-10T03:31:07.131Z,26.2
2017-02-10T03:32:07.178Z,26.1
2017-02-10T03:33:06.068Z,26.1
2017-02-10T03:34:06.121Z,26.1
2017-02-10T03:35:06.391Z,26.1
2017-02-10T03:36:07.261Z,26.1
2017-02-10T03:37:07.373Z,26.1
2017-02-10T03:38:06.304Z,26.1
2017-02-10T03:39:06.432Z,26.1
2017-02-10T03:40:06.550Z,26.1
2017-02-10T03:41:06.908Z,26.1
2017-02-10T03:42:06.585Z,26.1
2017-02-10T03:43:07.773Z,26.1
2017-02-10T03:44:07.775Z,26.1
2017-02-10T03:45:06.795Z,26.1
2017-02-10T03:46:07.915Z,26.1
2017-02-10T03:47:08.303Z,26.1
2017-02-10T03:48:08.104Z,26.1
2017-02-10T03:49:07.106Z,26.1
2017-02-10T03:50:07.197Z,26.1
2017-02-10T03:51:07.223Z,26.1
2017-02-10T03:52:07.300Z,26.1
2017-02-10T03:53:08.682Z,26.1
2017-02-10T03:54:08.378Z,26.1
2017-02-10T03:55:08.426Z,26.1
2017-02-10T03:56:08.540Z,26.1
2017-02-10T03:57:07.560Z,26.1
2017-02-10T03:58:07.494Z,26.1
2017-02-10T03:59:08.983Z,26.1
2017-02-10T04:00:07.752Z,26.1
2017-02-10T04:01:08.717Z,26.1
2017-02-10T04:02:08.779Z,26.1
2017-02-10T04:03:08.817Z,26.1
2017-02-10T04:04:08.853Z,26.1
2017-02-10T04:05:08.240Z,26.1
2017-02-10T04:06:08.992Z,26.1
2017-02-10T04:07:07.977Z,26.1
2017-02-10T04:08:09.026Z,26.1
2017-02-10T04:09:09.160Z,26.1
2017-02-10T04:10:08.204Z,26
2017-02-10T04:11:08.489Z,26
2017-02-10T04:12:09.199Z,26
2017-02-10T04:13:08.271Z,26.1
2017-02-10T04:14:09.271Z,26
2017-02-10T04:15:09.373Z,26
2017-02-10T04:16:08.454Z,26
2017-02-10T04:17:09.821Z,26.1
2017-02-10T04:18:09.532Z,26.1
2017-02-10T04:19:08.521Z,26
2017-02-10T04:20:09.726Z,26
2017-02-10T04:21:08.771Z,26
2017-02-10T04:22:09.870Z,26
2017-02-10T04:23:09.068Z,26
2017-02-10T04:24:09.945Z,26
2017-02-10T04:25:08.955Z,26
2017-02-10T04:26:09.985Z,26
2017-02-10T04:27:10.011Z,26
2017-02-10T04:28:10.104Z,26
2017-02-10T04:29:09.440Z,26
2017-02-10T04:30:09.078Z,26
2017-02-10T04:31:09.223Z,26
2017-02-10T04:32:09.155Z,26
2017-02-10T04:33:10.370Z,26
2017-02-10T04:34:09.241Z,26
2017-02-10T04:35:09.739Z,26
2017-02-10T04:36:10.504Z,26.1
2017-02-10T04:37:10.517Z,26
2017-02-10T04:38:09.523Z,26
2017-02-10T04:39:10.626Z,26
2017-02-10T04:40:09.611Z,26
2017-02-10T04:41:10.954Z,26
2017-02-10T04:42:09.595Z,26.1
2017-02-10T04:43:10.792Z,26.2
2017-02-10T04:44:09.833Z,26.3
2017-02-10T04:45:10.931Z,26.5
2017-02-10T04:46:11.046Z,26.7
2017-02-10T04:47:11.324Z,26.9
2017-02-10T04:48:11.177Z,27.1
2017-02-10T04:49:10.836Z,27.4
2017-02-10T04:50:10.102Z,27.5
2017-02-10T04:51:10.150Z,27.8
2017-02-10T04:52:11.324Z,28
2017-02-10T04:53:11.539Z,28.3
2017-02-10T04:54:10.332Z,28.5
2017-02-10T04:55:11.452Z,28.7
2017-02-10T04:56:11.486Z,28.8
2017-02-10T04:57:11.588Z,28.9
2017-02-10T04:58:11.719Z,29
2017-02-10T04:59:11.052Z,29.1
2017-02-10T05:00:11.842Z,29.2
2017-02-10T05:01:11.909Z,29.2
2017-02-10T05:02:10.807Z,29.2
2017-02-10T05:03:11.957Z,29.2
2017-02-10T05:04:11.995Z,29.2
2017-02-10T05:05:11.334Z,29.3
2017-02-10T05:06:12.177Z,29.3
2017-02-10T05:07:12.119Z,29.3
2017-02-10T05:08:11.104Z,29.3
2017-02-10T05:09:11.254Z,29.3
2017-02-10T05:10:12.409Z,29.3
2017-02-10T05:11:12.600Z,29.2
2017-02-10T05:12:11.399Z,29.2
2017-02-10T05:13:11.329Z,29.2
2017-02-10T05:14:12.502Z,29.2
2017-02-10T05:15:11.403Z,29.1
2017-02-10T05:16:11.499Z,29.1
2017-02-10T05:17:11.905Z,29.1
2017-02-10T05:18:12.681Z,29.1
2017-02-10T05:19:12.786Z,29.1
2017-02-10T05:20:11.713Z,29.1
2017-02-10T05:21:11.858Z,29.1
2017-02-10T05:22:11.860Z,29
2017-02-10T05:23:12.180Z,29.1
2017-02-10T05:24:11.992Z,29
2017-02-10T05:25:13.052Z,29
2017-02-10T05:26:13.108Z,29
2017-02-10T05:27:13.081Z,29
2017-02-10T05:28:12.156Z,29
2017-02-10T05:29:12.470Z,29
2017-02-10T05:30:13.245Z,28.9
2017-02-10T05:31:12.290Z,28.9
2017-02-10T05:32:13.367Z,28.9
2017-02-10T05:33:12.419Z,28.9
2017-02-10T05:34:13.457Z,28.9
2017-02-10T05:35:12.809Z,28.9
2017-02-10T05:36:12.542Z,28.8
2017-02-10T05:37:12.591Z,28.8
2017-02-10T05:38:13.748Z,28.8
2017-02-10T05:39:12.661Z,28.8
2017-02-10T05:40:13.803Z,28.8
2017-02-10T05:41:14.246Z,28.8
2017-02-10T05:42:13.950Z,28.8
2017-02-10T05:43:14.016Z,28.8
2017-02-10T05:44:14.079Z,28.7
2017-02-10T05:45:14.314Z,28.7
2017-02-10T05:46:13.220Z,28.7
2017-02-10T05:47:14.606Z,28.7
2017-02-10T05:48:14.268Z,28.7
2017-02-10T05:49:15.005Z,28.6
2017-02-10T05:50:14.420Z,28.6
2017-02-10T05:51:13.440Z,28.6
2017-02-10T05:52:14.498Z,28.6
2017-02-10T05:53:14.939Z,28.6
2017-02-10T05:54:14.767Z,28.6
2017-02-10T05:55:13.750Z,28.6
2017-02-10T05:56:13.711Z,28.6
2017-02-10T05:57:14.975Z,28.6
2017-02-10T05:58:13.847Z,28.5
2017-02-10T05:59:14.230Z,28.5
2017-02-10T06:00:13.968Z,28.5
2017-02-10T06:01:14.056Z,28.5
2017-02-10T06:02:14.090Z,28.5
2017-02-10T06:03:14.195Z,28.4
2017-02-10T06:04:14.260Z,28.4
2017-02-10T06:05:15.615Z,28.4
2017-02-10T06:06:15.365Z,28.4
2017-02-10T06:07:14.328Z,28.4
2017-02-10T06:08:14.536Z,28.4
2017-02-10T06:09:15.580Z,28.4
2017-02-10T06:10:14.707Z,28.3
2017-02-10T06:11:15.139Z,28.3
2017-02-10T06:12:15.804Z,28.3
2017-02-10T06:13:14.849Z,28.3
2017-02-10T06:14:15.963Z,28.3
2017-02-10T06:15:14.849Z,28.3
2017-02-10T06:16:16.073Z,28.3
2017-02-10T06:17:17.083Z,28.3
2017-02-10T06:18:16.167Z,28.3
2017-02-10T06:19:16.224Z,28.2
2017-02-10T06:20:15.245Z,28.2
2017-02-10T06:21:15.288Z,28.2
2017-02-10T06:22:16.392Z,28.2
2017-02-10T06:23:15.732Z,28.2
2017-02-10T06:24:15.601Z,28.2
2017-02-10T06:25:16.593Z,28.2
2017-02-10T06:26:16.716Z,28.2
2017-02-10T06:27:15.675Z,28.1
2017-02-10T06:28:15.602Z,28.1
2017-02-10T06:29:15.977Z,28.1
2017-02-10T06:30:16.808Z,28.1
2017-02-10T06:31:16.978Z,28.1
2017-02-10T06:32:17.607Z,28.1
2017-02-10T06:33:17.121Z,28.1
2017-02-10T06:34:17.185Z,28.1
2017-02-10T06:35:16.446Z,28
2017-02-10T06:36:17.301Z,28
2017-02-10T06:37:17.679Z,28
2017-02-10T06:38:16.240Z,28
2017-02-10T06:39:17.421Z,28
2017-02-10T06:40:18.006Z,28
2017-02-10T06:41:17.659Z,28
2017-02-10T06:42:16.521Z,28
2017-02-10T06:43:17.531Z,28
2017-02-10T06:44:16.537Z,27.9
2017-02-10T06:45:16.580Z,27.9
2017-02-10T06:46:17.601Z,27.9
2017-02-10T06:47:18.488Z,27.9
2017-02-10T06:48:16.719Z,27.9
2017-02-10T06:49:16.716Z,27.9
2017-02-10T06:50:18.500Z,27.9
2017-02-10T06:51:17.981Z,27.9
2017-02-10T06:52:16.803Z,27.9
2017-02-10T06:53:18.304Z,27.9
2017-02-10T06:54:18.039Z,27.9
2017-02-10T06:55:17.029Z,27.8
2017-02-10T06:56:18.145Z,27.8
2017-02-10T06:57:18.073Z,27.8
2017-02-10T06:58:18.133Z,27.8
2017-02-10T06:59:17.360Z,27.8
2017-02-10T07:00:18.264Z,27.8
2017-02-10T07:01:18.285Z,27.8
2017-02-10T07:02:18.242Z,27.8
2017-02-10T07:03:18.434Z,27.8
2017-02-10T07:04:17.390Z,27.8
2017-02-10T07:05:17.755Z,27.7
2017-02-10T07:06:17.519Z,27.7
2017-02-10T07:07:17.509Z,27.7
2017-02-10T07:08:17.626Z,27.7
2017-02-10T07:09:17.779Z,27.7
2017-02-10T07:10:18.881Z,27.7
2017-02-10T07:11:19.213Z,27.7
2017-02-10T07:12:18.004Z,27.7
2017-02-10T07:13:18.022Z,27.7
2017-02-10T07:14:17.957Z,27.7
2017-02-10T07:15:17.999Z,27.7
2017-02-10T07:16:18.144Z,27.6
2017-02-10T07:17:19.405Z,27.6
2017-02-10T07:18:18.094Z,27.6
2017-02-10T07:19:19.270Z,27.6
2017-02-10T07:20:18.794Z,27.6
2017-02-10T07:21:19.410Z,27.6
2017-02-10T07:22:18.409Z,27.6
2017-02-10T07:23:19.718Z,27.6
2017-02-10T07:24:19.576Z,27.6
2017-02-10T07:25:19.648Z,27.6
2017-02-10T07:26:19.608Z,27.6
2017-02-10T07:27:18.617Z,27.6
2017-02-10T07:28:19.714Z,27.6
2017-02-10T07:29:18.993Z,27.5
2017-02-10T07:30:19.819Z,27.5
2017-02-10T07:31:18.837Z,27.5
2017-02-10T07:32:19.717Z,27.5
2017-02-10T07:33:19.878Z,27.5
2017-02-10T07:34:18.889Z,27.5
2017-02-10T07:35:20.294Z,27.5
2017-02-10T07:36:19.026Z,27.5
2017-02-10T07:37:20.212Z,27.5
2017-02-10T07:38:19.088Z,27.5
2017-02-10T07:39:19.128Z,27.5
2017-02-10T07:40:20.253Z,27.5
2017-02-10T07:41:20.580Z,27.5
2017-02-10T07:42:21.036Z,27.5
2017-02-10T07:43:20.444Z,27.5
2017-02-10T07:44:20.528Z,27.5
2017-02-10T07:45:20.486Z,27.5
2017-02-10T07:46:20.605Z,27.5
2017-02-10T07:47:21.023Z,27.5
2017-02-10T07:48:20.651Z,27.5
2017-02-10T07:49:21.456Z,27.5
2017-02-10T07:50:20.796Z,27.4
2017-02-10T07:51:19.871Z,27.5
2017-02-10T07:52:19.990Z,27.5
2017-02-10T07:53:20.383Z,27.5
2017-02-10T07:54:20.162Z,27.5
2017-02-10T07:55:21.307Z,27.5
2017-02-10T07:56:20.262Z,27.5
2017-02-10T07:57:20.130Z,27.5
2017-02-10T07:58:20.289Z,27.5
2017-02-10T07:59:20.694Z,27.5
2017-02-10T08:00:21.479Z,27.5
2017-02-10T08:01:21.579Z,27.5
2017-02-10T08:02:21.618Z,27.5
2017-02-10T08:03:20.521Z,27.5
2017-02-10T08:04:21.313Z,27.5
2017-02-10T08:05:20.921Z,27.5
2017-02-10T08:06:20.627Z,27.5
2017-02-10T08:07:20.758Z,27.6
2017-02-10T08:08:21.877Z,27.6
2017-02-10T08:09:20.900Z,27.6
2017-02-10T08:10:21.978Z,27.6
2017-02-10T08:11:22.214Z,27.6
2017-02-10T08:12:22.087Z,27.6
2017-02-10T08:13:21.180Z,27.6
2017-02-10T08:14:21.664Z,27.6
2017-02-10T08:15:21.837Z,27.6
2017-02-10T08:16:21.238Z,27.6
2017-02-10T08:17:22.744Z,27.6
2017-02-10T08:18:22.419Z,27.6
2017-02-10T08:19:21.418Z,27.6
2017-02-10T08:20:22.474Z,27.6
2017-02-10T08:21:21.649Z,27.6
2017-02-10T08:22:22.727Z,27.7
2017-02-10T08:23:21.946Z,27.6
2017-02-10T08:24:21.584Z,27.6
2017-02-10T08:25:21.602Z,27.6
2017-02-10T08:26:22.790Z,27.7
2017-02-10T08:27:22.773Z,27.7
2017-02-10T08:28:21.707Z,27.7
2017-02-10T08:29:23.186Z,27.7
2017-02-10T08:30:21.853Z,27.7
2017-02-10T08:31:21.968Z,27.7
2017-02-10T08:32:23.068Z,27.7
2017-02-10T08:33:23.209Z,27.7
2017-02-10T08:34:23.199Z,27.7
2017-02-10T08:35:22.500Z,27.7
2017-02-10T08:36:23.540Z,27.7
2017-02-10T08:37:22.474Z,27.7
2017-02-10T08:38:23.515Z,27.7
2017-02-10T08:39:23.508Z,27.8
2017-02-10T08:40:23.607Z,27.7
2017-02-10T08:41:23.930Z,27.8
2017-02-10T08:42:22.756Z,27.8
2017-02-10T08:43:22.635Z,27.8
2017-02-10T08:44:24.384Z,27.8
2017-02-10T08:45:24.201Z,27.8
2017-02-10T08:46:23.092Z,27.8
2017-02-10T08:47:24.414Z,27.8
2017-02-10T08:48:24.573Z,27.8
2017-02-10T08:49:25.772Z,27.8
2017-02-10T08:50:23.138Z,27.8
2017-02-10T08:51:24.390Z,27.8
2017-02-10T08:52:23.622Z,27.8
2017-02-10T08:53:23.606Z,27.8
2017-02-10T08:54:24.525Z,27.8
2017-02-10T08:55:25.131Z,27.8
2017-02-10T08:56:23.703Z,27.8
2017-02-10T08:57:23.707Z,27.8
2017-02-10T08:58:24.704Z,27.8
2017-02-10T08:59:25.998Z,27.8
2017-02-10T09:00:25.773Z,27.8
2017-02-10T09:01:24.863Z,27.8
2017-02-10T09:02:26.018Z,27.8
2017-02-10T09:03:24.794Z,27.8
2017-02-10T09:04:25.118Z,27.8
2017-02-10T09:05:25.257Z,27.8
2017-02-10T09:06:25.328Z,27.8
2017-02-10T09:07:25.091Z,27.8
2017-02-10T09:08:25.276Z,27.9
2017-02-10T09:09:24.269Z,27.8
2017-02-10T09:10:24.436Z,27.8
2017-02-10T09:11:24.990Z,27.8
2017-02-10T09:12:25.773Z,27.8
2017-02-10T09:13:24.661Z,27.8
2017-02-10T09:14:26.323Z,27.8
2017-02-10T09:15:24.668Z,27.8
2017-02-10T09:16:24.619Z,27.8
2017-02-10T09:17:26.414Z,27.8
2017-02-10T09:18:27.026Z,27.8
2017-02-10T09:19:26.060Z,27.8
2017-02-10T09:20:25.867Z,27.8
2017-02-10T09:21:24.815Z,27.8
2017-02-10T09:22:26.282Z,27.8
2017-02-10T09:23:26.420Z,27.9
2017-02-10T09:24:26.570Z,27.9
2017-02-10T09:25:25.722Z,27.9
2017-02-10T09:26:25.442Z,27.9
2017-02-10T09:27:29.459Z,27.9
2017-02-10T09:28:28.746Z,27.9
2017-02-10T09:29:26.917Z,27.9
2017-02-10T09:30:26.113Z,27.9
2017-02-10T09:31:25.437Z,27.9
2017-02-10T09:32:25.381Z,27.9
2017-02-10T09:33:26.122Z,27.9
2017-02-10T09:34:25.585Z,27.9
2017-02-10T09:35:26.284Z,27.9
2017-02-10T09:36:27.653Z,27.9
2017-02-10T09:37:25.817Z,27.9
2017-02-10T09:38:27.968Z,28
2017-02-10T09:39:26.492Z,28.1
2017-02-10T09:40:27.864Z,28.2
2017-02-10T09:41:26.447Z,28.2
2017-02-10T09:42:28.134Z,28.3
2017-02-10T09:43:28.209Z,28.3
2017-02-10T09:44:26.393Z,28.3
2017-02-10T09:45:26.436Z,28.3
2017-02-10T09:46:26.382Z,28.4
2017-02-10T09:47:26.741Z,28.4
2017-02-10T09:48:26.411Z,28.4
2017-02-10T09:49:29.871Z,28.4
2017-02-10T09:50:26.455Z,28.4
2017-02-10T09:51:26.566Z,28.4
2017-02-10T09:52:31.240Z,28.5
2017-02-10T09:53:30.120Z,28.5
2017-02-10T09:54:26.586Z,28.5
2017-02-10T09:55:28.721Z,28.5
2017-02-10T09:56:28.649Z,28.5
2017-02-10T09:57:29.858Z,28.6
2017-02-10T09:58:30.154Z,28.6
2017-02-10T09:59:29.015Z,28.6
2017-02-10T10:00:28.790Z,28.6
2017-02-10T10:01:26.895Z,28.6
2017-02-10T10:02:30.244Z,28.6
2017-02-10T10:03:29.773Z,28.6
2017-02-10T10:04:30.892Z,28.6
2017-02-10T10:05:27.179Z,28.6
2017-02-10T10:06:26.890Z,28.6
2017-02-10T10:07:26.961Z,28.6
2017-02-10T10:08:30.354Z,28.7
2017-02-10T10:09:26.973Z,28.7
2017-02-10T10:10:27.021Z,28.7
2017-02-10T10:11:29.310Z,28.7
2017-02-10T10:12:29.089Z,28.7
2017-02-10T10:13:27.203Z,28.7
2017-02-10T10:14:27.225Z,28.8
2017-02-10T10:15:28.490Z,28.8
2017-02-10T10:16:27.221Z,28.8
2017-02-10T10:17:27.713Z,28.8
2017-02-10T10:18:30.683Z,28.8
2017-02-10T10:19:30.043Z,28.8
2017-02-10T10:20:27.476Z,28.8
2017-02-10T10:27:31.014Z,28.9
2017-02-10T10:29:31.776Z,28.9
2017-02-10T10:30:35.124Z,28.9
2017-02-10T10:31:28.030Z,28.9
2017-02-10T10:32:31.356Z,28.9
2017-02-10T10:33:31.940Z,28.9
2017-02-10T10:34:28.075Z,28.9
2017-02-10T10:35:28.705Z,28.9
2017-02-10T10:36:30.026Z,28.9
2017-02-10T10:37:31.564Z,28.9
2017-02-10T10:38:32.917Z,28.9
2017-02-10T10:39:32.254Z,28.9
2017-02-10T10:40:28.410Z,28.9
2017-02-10T10:41:30.323Z,28.9
2017-02-10T10:42:28.423Z,28.9
2017-02-10T10:43:30.606Z,28.9
2017-02-10T10:52:10.342Z,29
2017-02-10T10:53:11.983Z,29.1
2017-02-10T10:54:11.940Z,29.1
2017-02-10T10:55:10.224Z,29.1
2017-02-10T10:56:10.272Z,29.1
2017-02-10T10:57:10.699Z,29
2017-02-10T10:58:10.542Z,29
2017-02-10T10:59:10.357Z,29
2017-02-10T11:00:13.676Z,29
2017-02-10T11:01:13.639Z,29
2017-02-10T11:02:10.476Z,29
2017-02-10T11:03:10.514Z,29
2017-02-10T11:04:11.314Z,29
2017-02-10T11:10:13.927Z,28.9
2017-02-10T11:11:14.079Z,28.9
2017-02-10T11:12:12.727Z,28.9
2017-02-10T11:13:10.829Z,28.9
2017-02-10T11:14:10.849Z,28.9
2017-02-10T11:15:11.228Z,28.9
2017-02-10T11:16:11.028Z,28.9
2017-02-10T11:19:21.919Z,28.8
2017-02-10T11:20:11.003Z,28.8
2017-02-10T11:21:14.665Z,28.8
2017-02-10T11:22:11.957Z,28.8
2017-02-10T11:23:13.758Z,28.8
2017-02-10T11:24:12.943Z,28.7
2017-02-10T11:25:11.786Z,28.7
2017-02-10T11:26:12.259Z,28.7
2017-02-10T11:27:11.992Z,28.7
2017-02-10T11:28:13.835Z,28.7
2017-02-10T11:29:11.905Z,28.7
2017-02-10T11:30:12.095Z,28.6
2017-02-10T11:31:12.098Z,28.6
2017-02-10T11:32:14.171Z,28.6
2017-02-10T11:33:14.254Z,28.6
2017-02-10T11:34:15.501Z,28.6
2017-02-10T11:35:12.604Z,28.6
2017-02-10T11:36:12.205Z,28.6
2017-02-10T11:37:12.429Z,28.5
2017-02-10T11:38:11.918Z,28.5
2017-02-10T11:39:12.379Z,28.5
2017-02-10T11:40:12.136Z,28.6
2017-02-10T11:41:14.095Z,28.6
2017-02-10T11:42:14.130Z,28.6
2017-02-10T11:43:15.608Z,28.6
2017-02-10T11:44:15.514Z,28.6
2017-02-10T11:45:14.362Z,28.6
2017-02-10T11:46:12.294Z,28.6
2017-02-10T11:47:15.746Z,28.6
2017-02-10T11:48:15.865Z,28.7
2017-02-10T11:49:12.472Z,28.7
2017-02-10T11:50:15.828Z,28.7
2017-02-10T11:51:12.849Z,28.7
2017-02-10T11:52:12.533Z,28.7
2017-02-10T12:02:13.366Z,28.8
2017-02-10T12:03:16.665Z,28.8
2017-02-10T12:04:16.837Z,28.8
2017-02-10T12:05:13.431Z,28.8
2017-02-10T12:06:13.476Z,28.8
2017-02-10T12:08:13.969Z,28.8
2017-02-10T12:09:13.770Z,28.8
2017-02-10T12:10:17.137Z,28.8
2017-02-10T12:11:15.697Z,28.9
2017-02-10T12:12:13.945Z,28.9
2017-02-10T12:13:14.016Z,28.9
2017-02-10T12:14:17.649Z,28.9
2017-02-10T12:15:14.193Z,28.9
2017-02-10T12:16:14.269Z,28.9
2017-02-10T12:17:16.601Z,28.9
2017-02-10T12:18:14.401Z,28.9
2017-02-10T12:19:17.127Z,28.9
2017-02-10T12:20:14.777Z,28.9
2017-02-10T12:21:16.372Z,28.9
2017-02-10T12:22:16.476Z,28.9
2017-02-10T12:23:15.256Z,28.9
2017-02-10T12:24:14.754Z,28.9
2017-02-10T12:25:18.113Z,28.9
2017-02-10T12:26:15.674Z,28.9
2017-02-10T12:27:18.094Z,28.9
2017-02-10T12:28:16.787Z,28.9
2017-02-10T12:29:14.888Z,28.9
2017-02-10T12:30:15.113Z,29
2017-02-10T12:31:17.027Z,28.9
2017-02-10T12:32:18.112Z,29
2017-02-10T12:33:18.371Z,29
2017-02-10T12:34:15.172Z,29
2017-02-10T12:35:15.143Z,29
2017-02-10T12:36:16.013Z,29
2017-02-10T12:37:15.402Z,29
2017-02-10T12:38:15.656Z,29
2017-02-10T12:39:17.491Z,29
2017-02-10T12:40:15.585Z,29
2017-02-10T12:41:19.654Z,29
2017-02-10T12:42:16.243Z,29
2017-02-10T12:43:19.024Z,29
2017-02-10T12:44:16.037Z,29.1
2017-02-10T12:45:15.921Z,29.1
2017-02-10T12:46:16.532Z,29.1
2017-02-10T12:47:20.201Z,29.1
2017-02-10T12:48:18.113Z,29.1
2017-02-10T12:49:26.529Z,29.1
2017-02-10T12:52:19.073Z,29
2017-02-10T12:53:16.266Z,29.1
2017-02-10T12:54:16.353Z,29.1
2017-02-10T12:55:18.545Z,29.1
2017-02-10T12:56:16.362Z,29.1
2017-02-10T12:57:16.767Z,29.1
2017-02-10T12:58:16.749Z,29.1
2017-02-10T12:59:18.736Z,29.1
2017-02-10T13:00:18.765Z,29.1
2017-02-10T13:01:20.550Z,29.1
2017-02-10T13:02:16.892Z,29.1
2017-02-10T13:03:18.669Z,29.1
2017-02-10T13:04:16.970Z,29.1
2017-02-10T13:05:16.965Z,29.2
2017-02-10T13:06:18.373Z,29.2
2017-02-10T13:07:17.437Z,29.2
2017-02-10T13:08:19.123Z,29.2
2017-02-10T13:09:17.221Z,29.2
2017-02-10T13:10:19.175Z,29.2
2017-02-10T13:11:20.592Z,29.2
2017-02-10T13:12:17.334Z,29.2
2017-02-10T13:13:20.998Z,29.2
2017-02-10T13:14:21.249Z,29.2
2017-02-10T13:15:17.451Z,29.2
2017-02-10T13:16:20.754Z,29.2
2017-02-10T13:17:17.543Z,29.2
2017-02-10T13:18:19.626Z,29.2
2017-02-10T13:19:17.906Z,29.3
2017-02-10T13:20:19.648Z,29.2
2017-02-10T13:21:17.862Z,29.2
2017-02-10T13:22:21.125Z,29.2
2017-02-10T13:23:19.812Z,29.3
2017-02-10T13:24:17.885Z,29.3
2017-02-10T13:25:18.128Z,29.3
2017-02-10T13:26:19.768Z,29.3
2017-02-10T13:27:19.902Z,29.3
2017-02-10T13:28:19.885Z,29.4
2017-02-10T13:29:18.107Z,29.4
2017-02-10T13:30:18.182Z,29.4
2017-02-10T13:31:18.474Z,29.4
2017-02-10T13:32:21.588Z,29.4
2017-02-10T13:33:18.322Z,29.5
2017-02-10T13:34:21.740Z,29.5
2017-02-10T13:35:18.979Z,29.5
2017-02-10T13:36:18.562Z,29.5
2017-02-10T13:37:22.024Z,29.5
2017-02-10T13:38:22.047Z,29.5
2017-02-10T13:39:20.759Z,29.5
2017-02-10T13:40:18.682Z,29.5
2017-02-10T13:41:18.744Z,29.5
2017-02-10T13:42:19.792Z,29.5
2017-02-10T13:43:21.004Z,29.5
2017-02-10T13:44:22.156Z,29.5
2017-02-10T13:45:18.945Z,29.5
2017-02-10T13:46:22.259Z,29.6
2017-02-10T13:47:19.581Z,29.6
2017-02-10T13:48:19.134Z,29.6
2017-02-10T13:49:19.371Z,29.6
2017-02-10T13:50:21.009Z,29.6
2017-02-10T13:51:22.509Z,29.6
2017-02-10T13:52:19.067Z,29.6
2017-02-10T13:53:19.233Z,29.6
2017-02-10T13:54:19.297Z,29.6
2017-02-10T13:55:22.132Z,29.6
2017-02-10T13:56:19.469Z,29.6
2017-02-10T13:57:20.808Z,29.6
2017-02-10T13:58:21.422Z,29.6
2017-02-10T13:59:22.053Z,29.6
2017-02-10T14:00:22.922Z,29.6
2017-02-10T14:01:23.394Z,29.7
2017-02-10T14:02:23.057Z,29.7
2017-02-10T14:03:19.807Z,29.7
2017-02-10T14:04:23.155Z,29.7
2017-02-10T14:05:19.944Z,29.7